sensor_id;sensor_type;location;lat;lon;timestamp;pressure;altitude;pressure_sealevel;temperature;humidity
72798;BME280;61084;55.816;37.036;2023-07-22T00:01:19;98825.88;;;13.86;62.65
72798;BME280;61084;55.816;37.036;2023-07-22T00:03:44;98825.06;;;13.85;62.11
72798;BME280;61084;55.816;37.036;2023-07-22T00:06:13;98820.00;;;13.82;62.16
72798;BME280;61084;55.816;37.036;2023-07-22T00:08:39;98822.75;;;13.81;62.03
72798;BME280;61084;55.816;37.036;2023-07-22T00:11:05;98824.88;;;13.76;61.97
72798;BME280;61084;55.816;37.036;2023-07-22T00:13:35;98825.81;;;13.75;62.33
72798;BME280;61084;55.816;37.036;2023-07-22T00:16:01;98827.75;;;13.73;62.05
72798;BME280;61084;55.816;37.036;2023-07-22T00:18:30;98822.47;;;13.73;62.10
72798;BME280;61084;55.816;37.036;2023-07-22T00:20:57;98829.56;;;13.72;62.20
72798;BME280;61084;55.816;37.036;2023-07-22T00:23:23;98836.75;;;13.70;62.13
72798;BME280;61084;55.816;37.036;2023-07-22T00:25:49;98835.06;;;13.69;62.42
72798;BME280;61084;55.816;37.036;2023-07-22T00:28:15;98838.03;;;13.65;62.60
72798;BME280;61084;55.816;37.036;2023-07-22T00:30:42;98832.16;;;13.61;62.56
72798;BME280;61084;55.816;37.036;2023-07-22T00:33:08;98834.66;;;13.63;63.19
72798;BME280;61084;55.816;37.036;2023-07-22T00:35:35;98835.00;;;13.58;62.88
72798;BME280;61084;55.816;37.036;2023-07-22T00:38:01;98835.72;;;13.60;62.88
72798;BME280;61084;55.816;37.036;2023-07-22T00:40:27;98825.44;;;13.57;62.68
72798;BME280;61084;55.816;37.036;2023-07-22T00:42:56;98835.13;;;13.56;62.94
72798;BME280;61084;55.816;37.036;2023-07-22T00:45:21;98829.13;;;13.54;63.04
72798;BME280;61084;55.816;37.036;2023-07-22T00:47:47;98832.09;;;13.50;62.87
72798;BME280;61084;55.816;37.036;2023-07-22T00:50:13;98831.38;;;13.48;63.16
72798;BME280;61084;55.816;37.036;2023-07-22T00:52:40;98828.97;;;13.45;62.85
72798;BME280;61084;55.816;37.036;2023-07-22T00:55:06;98831.72;;;13.43;63.21
72798;BME280;61084;55.816;37.036;2023-07-22T00:57:34;98827.38;;;13.42;63.01
72798;BME280;61084;55.816;37.036;2023-07-22T01:00:01;98824.75;;;13.42;63.35
72798;BME280;61084;55.816;37.036;2023-07-22T01:02:34;98834.44;;;13.42;63.29
72798;BME280;61084;55.816;37.036;2023-07-22T01:05:01;98848.81;;;13.38;63.39
72798;BME280;61084;55.816;37.036;2023-07-22T01:07:32;98847.88;;;13.39;63.32
72798;BME280;61084;55.816;37.036;2023-07-22T01:09:59;98843.53;;;13.38;63.25
72798;BME280;61084;55.816;37.036;2023-07-22T01:12:27;98845.34;;;13.37;63.30
72798;BME280;61084;55.816;37.036;2023-07-22T01:14:53;98843.78;;;13.35;63.71
72798;BME280;61084;55.816;37.036;2023-07-22T01:17:19;98853.25;;;13.37;63.72
72798;BME280;61084;55.816;37.036;2023-07-22T01:19:46;98855.06;;;13.37;63.45
72798;BME280;61084;55.816;37.036;2023-07-22T01:22:13;98856.84;;;13.36;63.51
72798;BME280;61084;55.816;37.036;2023-07-22T01:24:40;98859.69;;;13.33;63.51
72798;BME280;61084;55.816;37.036;2023-07-22T01:27:08;98864.22;;;13.31;63.49
72798;BME280;61084;55.816;37.036;2023-07-22T01:29:36;98866.03;;;13.31;63.46
72798;BME280;61084;55.816;37.036;2023-07-22T01:32:03;98857.38;;;13.29;63.87
72798;BME280;61084;55.816;37.036;2023-07-22T01:34:29;98866.25;;;13.28;63.76
72798;BME280;61084;55.816;37.036;2023-07-22T01:36:58;98868.28;;;13.24;63.72
72798;BME280;61084;55.816;37.036;2023-07-22T01:39:24;98868.38;;;13.23;63.84
72798;BME280;61084;55.816;37.036;2023-07-22T01:41:52;98874.59;;;13.22;63.96
72798;BME280;61084;55.816;37.036;2023-07-22T01:44:18;98888.84;;;13.19;64.08
72798;BME280;61084;55.816;37.036;2023-07-22T01:46:44;98888.00;;;13.19;64.00
72798;BME280;61084;55.816;37.036;2023-07-22T01:49:11;98877.69;;;13.16;64.20
72798;BME280;61084;55.816;37.036;2023-07-22T01:51:40;98877.56;;;13.17;64.07
72798;BME280;61084;55.816;37.036;2023-07-22T01:54:07;98877.34;;;13.20;64.10
72798;BME280;61084;55.816;37.036;2023-07-22T01:56:35;98881.78;;;13.20;63.91
72798;BME280;61084;55.816;37.036;2023-07-22T01:59:01;98878.31;;;13.19;64.06
72798;BME280;61084;55.816;37.036;2023-07-22T02:01:27;98877.34;;;13.20;64.50
72798;BME280;61084;55.816;37.036;2023-07-22T02:03:55;98884.41;;;13.20;64.25
72798;BME280;61084;55.816;37.036;2023-07-22T02:06:22;98878.19;;;13.21;64.49
72798;BME280;61084;55.816;37.036;2023-07-22T02:08:48;98877.13;;;13.23;64.25
72798;BME280;61084;55.816;37.036;2023-07-22T02:11:16;98871.13;;;13.21;64.46
72798;BME280;61084;55.816;37.036;2023-07-22T02:13:46;98874.16;;;13.28;64.35
72798;BME280;61084;55.816;37.036;2023-07-22T02:16:12;98887.34;;;13.28;64.97
72798;BME280;61084;55.816;37.036;2023-07-22T02:18:38;98881.94;;;13.29;64.62
72798;BME280;61084;55.816;37.036;2023-07-22T02:21:05;98892.28;;;13.32;64.36
72798;BME280;61084;55.816;37.036;2023-07-22T02:23:30;98891.09;;;13.36;64.59
72798;BME280;61084;55.816;37.036;2023-07-22T02:25:56;98889.00;;;13.41;64.69
72798;BME280;61084;55.816;37.036;2023-07-22T02:28:23;98888.75;;;13.44;64.71
72798;BME280;61084;55.816;37.036;2023-07-22T02:30:53;98884.19;;;13.46;65.22
72798;BME280;61084;55.816;37.036;2023-07-22T02:33:21;98897.06;;;13.51;64.77
72798;BME280;61084;55.816;37.036;2023-07-22T02:35:48;98891.56;;;13.54;64.92
72798;BME280;61084;55.816;37.036;2023-07-22T02:38:15;98896.63;;;13.57;64.88
72798;BME280;61084;55.816;37.036;2023-07-22T02:40:41;98897.84;;;13.64;65.00
72798;BME280;61084;55.816;37.036;2023-07-22T02:43:07;98895.72;;;13.69;64.95
72798;BME280;61084;55.816;37.036;2023-07-22T02:45:34;98900.53;;;13.75;65.67
72798;BME280;61084;55.816;37.036;2023-07-22T02:48:00;98898.75;;;13.76;65.54
72798;BME280;61084;55.816;37.036;2023-07-22T02:50:27;98908.50;;;13.86;64.65
72798;BME280;61084;55.816;37.036;2023-07-22T02:52:53;98907.69;;;13.97;65.07
72798;BME280;61084;55.816;37.036;2023-07-22T02:55:20;98896.47;;;14.06;65.09
72798;BME280;61084;55.816;37.036;2023-07-22T02:57:47;98905.25;;;14.17;65.15
72798;BME280;61084;55.816;37.036;2023-07-22T03:00:16;98904.34;;;14.29;65.59
72798;BME280;61084;55.816;37.036;2023-07-22T03:02:55;98908.81;;;14.40;65.61
72798;BME280;61084;55.816;37.036;2023-07-22T03:05:28;98906.19;;;14.51;65.20
72798;BME280;61084;55.816;37.036;2023-07-22T03:07:55;98905.50;;;14.60;65.36
72798;BME280;61084;55.816;37.036;2023-07-22T03:10:21;98894.22;;;14.69;65.03
72798;BME280;61084;55.816;37.036;2023-07-22T03:12:47;98904.31;;;14.75;65.17
72798;BME280;61084;55.816;37.036;2023-07-22T03:15:13;98902.75;;;14.84;64.68
72798;BME280;61084;55.816;37.036;2023-07-22T03:17:40;98901.91;;;14.94;64.72
72798;BME280;61084;55.816;37.036;2023-07-22T03:20:09;98910.81;;;15.04;64.71
72798;BME280;61084;55.816;37.036;2023-07-22T03:22:43;98906.69;;;15.11;65.16
72798;BME280;61084;55.816;37.036;2023-07-22T03:25:10;98910.09;;;15.14;64.38
72798;BME280;61084;55.816;37.036;2023-07-22T03:27:37;98905.16;;;15.20;64.20
72798;BME280;61084;55.816;37.036;2023-07-22T03:30:05;98904.75;;;15.25;63.85
72798;BME280;61084;55.816;37.036;2023-07-22T03:32:36;98904.16;;;15.32;63.88
72798;BME280;61084;55.816;37.036;2023-07-22T03:35:05;98908.59;;;15.43;63.89
72798;BME280;61084;55.816;37.036;2023-07-22T03:37:33;98899.09;;;15.51;63.74
72798;BME280;61084;55.816;37.036;2023-07-22T03:40:03;98905.22;;;15.63;63.61
72798;BME280;61084;55.816;37.036;2023-07-22T03:42:33;98919.34;;;15.73;63.49
72798;BME280;61084;55.816;37.036;2023-07-22T03:44:59;98912.84;;;15.77;63.30
72798;BME280;61084;55.816;37.036;2023-07-22T03:47:25;98915.59;;;15.87;63.04
72798;BME280;61084;55.816;37.036;2023-07-22T03:49:51;98914.13;;;15.94;62.87
72798;BME280;61084;55.816;37.036;2023-07-22T03:52:16;98920.34;;;16.04;62.75
72798;BME280;61084;55.816;37.036;2023-07-22T03:54:44;98913.28;;;16.14;62.77
72798;BME280;61084;55.816;37.036;2023-07-22T03:57:10;98917.72;;;16.24;63.12
72798;BME280;61084;55.816;37.036;2023-07-22T03:59:36;98921.28;;;16.34;62.58
72798;BME280;61084;55.816;37.036;2023-07-22T04:02:02;98924.09;;;16.42;62.59
72798;BME280;61084;55.816;37.036;2023-07-22T04:04:28;98913.63;;;16.52;62.42
72798;BME280;61084;55.816;37.036;2023-07-22T04:06:54;98918.84;;;16.63;62.03
72798;BME280;61084;55.816;37.036;2023-07-22T04:09:20;98916.94;;;16.75;62.40
72798;BME280;61084;55.816;37.036;2023-07-22T04:11:46;98915.06;;;16.86;61.88
72798;BME280;61084;55.816;37.036;2023-07-22T04:14:12;98910.59;;;16.87;61.87
72798;BME280;61084;55.816;37.036;2023-07-22T04:16:39;98909.59;;;16.88;61.83
72798;BME280;61084;55.816;37.036;2023-07-22T04:19:05;98917.56;;;16.88;61.69
72798;BME280;61084;55.816;37.036;2023-07-22T04:21:31;98923.91;;;16.96;61.61
72798;BME280;61084;55.816;37.036;2023-07-22T04:23:56;98923.06;;;16.96;61.34
72798;BME280;61084;55.816;37.036;2023-07-22T04:26:24;98927.81;;;17.02;61.50
72798;BME280;61084;55.816;37.036;2023-07-22T04:28:51;98923.00;;;17.16;61.62
72798;BME280;61084;55.816;37.036;2023-07-22T04:31:16;98927.81;;;17.32;61.05
72798;BME280;61084;55.816;37.036;2023-07-22T04:33:43;98921.44;;;17.44;60.88
72798;BME280;61084;55.816;37.036;2023-07-22T04:36:09;98927.75;;;17.53;61.34
72798;BME280;61084;55.816;37.036;2023-07-22T04:38:36;98931.69;;;17.58;61.04
72798;BME280;61084;55.816;37.036;2023-07-22T04:41:03;98930.97;;;17.56;60.76
72798;BME280;61084;55.816;37.036;2023-07-22T04:43:31;98940.03;;;17.54;60.45
72798;BME280;61084;55.816;37.036;2023-07-22T04:45:56;98938.38;;;17.53;60.33
72798;BME280;61084;55.816;37.036;2023-07-22T04:48:23;98946.34;;;17.53;60.29
72798;BME280;61084;55.816;37.036;2023-07-22T04:50:49;98946.06;;;17.56;60.81
72798;BME280;61084;55.816;37.036;2023-07-22T04:53:16;98941.34;;;17.59;60.96
72798;BME280;61084;55.816;37.036;2023-07-22T04:55:43;98947.75;;;17.66;60.88
72798;BME280;61084;55.816;37.036;2023-07-22T04:58:09;98937.88;;;17.78;60.84
72798;BME280;61084;55.816;37.036;2023-07-22T05:00:37;98942.63;;;17.93;60.68
72798;BME280;61084;55.816;37.036;2023-07-22T05:03:05;98941.22;;;17.99;60.44
72798;BME280;61084;55.816;37.036;2023-07-22T05:05:32;98940.28;;;18.00;60.33
72798;BME280;61084;55.816;37.036;2023-07-22T05:07:58;98931.03;;;18.04;60.34
72798;BME280;61084;55.816;37.036;2023-07-22T05:10:24;98933.00;;;18.02;60.05
72798;BME280;61084;55.816;37.036;2023-07-22T05:12:50;98937.31;;;18.03;59.77
72798;BME280;61084;55.816;37.036;2023-07-22T05:15:15;98938.16;;;18.03;59.87
72798;BME280;61084;55.816;37.036;2023-07-22T05:17:42;98942.66;;;18.13;59.87
72798;BME280;61084;55.816;37.036;2023-07-22T05:20:08;98938.88;;;18.25;59.60
72798;BME280;61084;55.816;37.036;2023-07-22T05:22:37;98929.94;;;18.45;59.87
72798;BME280;61084;55.816;37.036;2023-07-22T05:25:04;98931.84;;;18.62;59.51
72798;BME280;61084;55.816;37.036;2023-07-22T05:27:31;98934.63;;;18.79;59.19
72798;BME280;61084;55.816;37.036;2023-07-22T05:29:57;98934.56;;;18.99;59.03
72798;BME280;61084;55.816;37.036;2023-07-22T05:32:23;98933.13;;;19.14;58.68
72798;BME280;61084;55.816;37.036;2023-07-22T05:34:49;98921.97;;;19.28;58.38
72798;BME280;61084;55.816;37.036;2023-07-22T05:37:15;98932.47;;;19.39;57.48
72798;BME280;61084;55.816;37.036;2023-07-22T05:39:41;98927.22;;;19.47;57.76
72798;BME280;61084;55.816;37.036;2023-07-22T05:42:06;98932.91;;;19.62;57.80
72798;BME280;61084;55.816;37.036;2023-07-22T05:44:32;98927.75;;;19.78;57.67
72798;BME280;61084;55.816;37.036;2023-07-22T05:46:58;98927.38;;;19.90;57.23
72798;BME280;61084;55.816;37.036;2023-07-22T05:49:24;98927.03;;;20.03;57.25
72798;BME280;61084;55.816;37.036;2023-07-22T05:51:50;98922.66;;;20.19;56.66
72798;BME280;61084;55.816;37.036;2023-07-22T05:54:16;98920.31;;;20.34;56.79
72798;BME280;61084;55.816;37.036;2023-07-22T05:56:42;98919.84;;;20.39;55.89
72798;BME280;61084;55.816;37.036;2023-07-22T05:59:08;98929.66;;;20.56;56.28
72798;BME280;61084;55.816;37.036;2023-07-22T06:01:34;98932.53;;;20.62;55.56
72798;BME280;61084;55.816;37.036;2023-07-22T06:04:00;98927.28;;;20.70;55.34
72798;BME280;61084;55.816;37.036;2023-07-22T06:06:27;98934.50;;;20.78;54.80
72798;BME280;61084;55.816;37.036;2023-07-22T06:08:53;98923.19;;;20.84;54.60
72798;BME280;61084;55.816;37.036;2023-07-22T06:11:19;98931.47;;;20.98;54.82
72798;BME280;61084;55.816;37.036;2023-07-22T06:13:46;98930.41;;;21.17;54.76
72798;BME280;61084;55.816;37.036;2023-07-22T06:16:12;98928.78;;;21.24;54.28
72798;BME280;61084;55.816;37.036;2023-07-22T06:18:38;98927.84;;;21.33;54.22
72798;BME280;61084;55.816;37.036;2023-07-22T06:21:04;98936.53;;;21.43;53.87
72798;BME280;61084;55.816;37.036;2023-07-22T06:23:30;98925.38;;;21.48;53.24
72798;BME280;61084;55.816;37.036;2023-07-22T06:25:56;98930.72;;;21.48;53.50
72798;BME280;61084;55.816;37.036;2023-07-22T06:28:22;98933.78;;;21.61;52.88
72798;BME280;61084;55.816;37.036;2023-07-22T06:30:47;98924.94;;;21.68;52.30
72798;BME280;61084;55.816;37.036;2023-07-22T06:33:13;98922.63;;;21.82;52.86
72798;BME280;61084;55.816;37.036;2023-07-22T06:35:39;98917.84;;;21.93;52.64
72798;BME280;61084;55.816;37.036;2023-07-22T06:38:05;98922.38;;;22.09;52.30
72798;BME280;61084;55.816;37.036;2023-07-22T06:40:31;98920.38;;;22.03;50.40
72798;BME280;61084;55.816;37.036;2023-07-22T06:42:57;98919.72;;;22.09;51.42
72798;BME280;61084;55.816;37.036;2023-07-22T06:45:22;98923.91;;;22.19;50.59
72798;BME280;61084;55.816;37.036;2023-07-22T06:47:48;98921.91;;;22.37;51.79
72798;BME280;61084;55.816;37.036;2023-07-22T06:50:14;98923.91;;;22.51;50.25
72798;BME280;61084;55.816;37.036;2023-07-22T06:52:40;98923.78;;;22.61;50.99
72798;BME280;61084;55.816;37.036;2023-07-22T06:55:06;98922.25;;;22.75;50.29
72798;BME280;61084;55.816;37.036;2023-07-22T06:57:33;98925.41;;;22.78;49.77
72798;BME280;61084;55.816;37.036;2023-07-22T06:59:58;98922.91;;;22.85;49.73
72798;BME280;61084;55.816;37.036;2023-07-22T07:02:26;98923.38;;;22.88;48.67
72798;BME280;61084;55.816;37.036;2023-07-22T07:04:52;98925.41;;;22.94;49.64
72798;BME280;61084;55.816;37.036;2023-07-22T07:07:18;98920.56;;;22.82;49.58
72798;BME280;61084;55.816;37.036;2023-07-22T07:09:44;98926.59;;;22.76;47.88
72798;BME280;61084;55.816;37.036;2023-07-22T07:12:10;98916.06;;;22.74;49.03
72798;BME280;61084;55.816;37.036;2023-07-22T07:14:37;98919.91;;;22.88;47.72
72798;BME280;61084;55.816;37.036;2023-07-22T07:17:03;98917.00;;;22.97;47.54
72798;BME280;61084;55.816;37.036;2023-07-22T07:19:29;98921.66;;;23.03;48.25
72798;BME280;61084;55.816;37.036;2023-07-22T07:21:54;98918.66;;;23.06;48.87
72798;BME280;61084;55.816;37.036;2023-07-22T07:24:20;98916.69;;;23.00;48.32
72798;BME280;61084;55.816;37.036;2023-07-22T07:26:46;98920.81;;;23.11;48.58
72798;BME280;61084;55.816;37.036;2023-07-22T07:29:13;98928.97;;;23.25;48.95
72798;BME280;61084;55.816;37.036;2023-07-22T07:31:39;98919.66;;;23.13;47.21
72798;BME280;61084;55.816;37.036;2023-07-22T07:34:05;98936.09;;;23.02;48.03
72798;BME280;61084;55.816;37.036;2023-07-22T07:36:34;98936.41;;;22.99;47.87
72798;BME280;61084;55.816;37.036;2023-07-22T07:39:00;98927.22;;;23.02;47.62
72798;BME280;61084;55.816;37.036;2023-07-22T07:41:28;98923.03;;;23.07;47.26
72798;BME280;61084;55.816;37.036;2023-07-22T07:43:54;98923.81;;;23.24;47.85
72798;BME280;61084;55.816;37.036;2023-07-22T07:46:22;98927.28;;;23.41;45.25
72798;BME280;61084;55.816;37.036;2023-07-22T07:48:50;98919.22;;;23.49;46.95
72798;BME280;61084;55.816;37.036;2023-07-22T07:51:18;98920.16;;;23.56;46.67
72798;BME280;61084;55.816;37.036;2023-07-22T07:53:45;98918.66;;;23.61;47.50
72798;BME280;61084;55.816;37.036;2023-07-22T07:56:14;98929.31;;;23.69;47.29
72798;BME280;61084;55.816;37.036;2023-07-22T07:58:40;98922.56;;;23.81;46.54
72798;BME280;61084;55.816;37.036;2023-07-22T08:01:06;98918.00;;;23.90;46.39
72798;BME280;61084;55.816;37.036;2023-07-22T08:03:33;98921.94;;;24.02;45.02
72798;BME280;61084;55.816;37.036;2023-07-22T08:05:59;98926.78;;;24.07;46.04
72798;BME280;61084;55.816;37.036;2023-07-22T08:08:25;98918.88;;;24.13;46.66
72798;BME280;61084;55.816;37.036;2023-07-22T08:11:07;98922.44;;;24.28;46.04
72798;BME280;61084;55.816;37.036;2023-07-22T08:13:34;98930.50;;;24.28;45.96
72798;BME280;61084;55.816;37.036;2023-07-22T08:16:01;98925.78;;;24.30;46.03
72798;BME280;61084;55.816;37.036;2023-07-22T08:18:29;98933.63;;;24.32;45.75
72798;BME280;61084;55.816;37.036;2023-07-22T08:20:56;98937.47;;;24.37;45.77
72798;BME280;61084;55.816;37.036;2023-07-22T08:23:22;98940.09;;;24.23;45.68
72798;BME280;61084;55.816;37.036;2023-07-22T08:25:49;98937.56;;;24.21;43.17
72798;BME280;61084;55.816;37.036;2023-07-22T08:28:15;98940.75;;;24.25;44.23
72798;BME280;61084;55.816;37.036;2023-07-22T08:30:41;98941.94;;;24.22;45.31
72798;BME280;61084;55.816;37.036;2023-07-22T08:33:11;98939.84;;;24.32;45.05
72798;BME280;61084;55.816;37.036;2023-07-22T08:35:38;98933.28;;;24.35;44.03
72798;BME280;61084;55.816;37.036;2023-07-22T08:38:06;98948.63;;;24.26;45.32
72798;BME280;61084;55.816;37.036;2023-07-22T08:40:37;98939.78;;;24.18;44.82
72798;BME280;61084;55.816;37.036;2023-07-22T08:43:05;98937.97;;;24.10;42.90
72798;BME280;61084;55.816;37.036;2023-07-22T08:45:33;98936.78;;;24.13;44.13
72798;BME280;61084;55.816;37.036;2023-07-22T08:48:06;98934.84;;;24.29;44.44
72798;BME280;61084;55.816;37.036;2023-07-22T08:53:05;98931.16;;;24.67;44.32
72798;BME280;61084;55.816;37.036;2023-07-22T08:55:31;98936.13;;;24.79;43.87
72798;BME280;61084;55.816;37.036;2023-07-22T08:57:57;98928.28;;;24.92;43.06
72798;BME280;61084;55.816;37.036;2023-07-22T09:00:24;98924.22;;;25.10;44.22
72798;BME280;61084;55.816;37.036;2023-07-22T09:02:51;98940.34;;;25.25;44.38
72798;BME280;61084;55.816;37.036;2023-07-22T09:05:17;98933.03;;;25.33;43.44
72798;BME280;61084;55.816;37.036;2023-07-22T09:07:43;98940.91;;;25.50;44.00
72798;BME280;61084;55.816;37.036;2023-07-22T09:10:09;98943.53;;;25.58;43.22
72798;BME280;61084;55.816;37.036;2023-07-22T09:12:36;98937.47;;;25.56;43.18
72798;BME280;61084;55.816;37.036;2023-07-22T09:15:12;98940.75;;;25.51;41.71
72798;BME280;61084;55.816;37.036;2023-07-22T09:17:39;98933.97;;;25.55;42.68
72798;BME280;61084;55.816;37.036;2023-07-22T09:20:05;98944.72;;;25.55;42.77
72798;BME280;61084;55.816;37.036;2023-07-22T09:22:32;98935.63;;;25.71;42.52
72798;BME280;61084;55.816;37.036;2023-07-22T09:25:18;98938.84;;;25.81;41.53
72798;BME280;61084;55.816;37.036;2023-07-22T09:27:50;98934.75;;;25.85;42.00
72798;BME280;61084;55.816;37.036;2023-07-22T09:30:28;98936.09;;;25.95;42.08
72798;BME280;61084;55.816;37.036;2023-07-22T09:33:00;98952.72;;;25.99;42.27
72798;BME280;61084;55.816;37.036;2023-07-22T09:35:31;98940.13;;;26.06;41.16
72798;BME280;61084;55.816;37.036;2023-07-22T09:37:59;98937.94;;;26.09;42.23
72798;BME280;61084;55.816;37.036;2023-07-22T09:40:28;98940.16;;;26.21;42.41
72798;BME280;61084;55.816;37.036;2023-07-22T09:42:59;98943.78;;;26.34;41.64
72798;BME280;61084;55.816;37.036;2023-07-22T09:45:29;98949.50;;;26.46;41.08
72798;BME280;61084;55.816;37.036;2023-07-22T09:47:56;98945.97;;;26.45;40.64
72798;BME280;61084;55.816;37.036;2023-07-22T09:50:24;98950.34;;;26.46;40.99
72798;BME280;61084;55.816;37.036;2023-07-22T09:52:54;98940.63;;;26.52;39.91
72798;BME280;61084;55.816;37.036;2023-07-22T09:55:23;98945.38;;;26.50;40.41
72798;BME280;61084;55.816;37.036;2023-07-22T09:58:09;98948.84;;;26.44;40.35
72798;BME280;61084;55.816;37.036;2023-07-22T10:00:36;98956.28;;;26.42;40.64
72798;BME280;61084;55.816;37.036;2023-07-22T10:03:03;98955.31;;;26.28;38.96
72798;BME280;61084;55.816;37.036;2023-07-22T10:05:34;98963.25;;;26.15;38.32
72798;BME280;61084;55.816;37.036;2023-07-22T10:08:02;98966.03;;;26.07;40.94
72798;BME280;61084;55.816;37.036;2023-07-22T10:10:37;98951.22;;;26.11;40.32
72798;BME280;61084;55.816;37.036;2023-07-22T10:13:04;98963.06;;;26.02;39.62
72798;BME280;61084;55.816;37.036;2023-07-22T10:15:32;98962.50;;;26.06;40.30
72798;BME280;61084;55.816;37.036;2023-07-22T10:18:03;98958.06;;;26.13;40.20
72798;BME280;61084;55.816;37.036;2023-07-22T10:20:29;98959.63;;;26.23;39.58
72798;BME280;61084;55.816;37.036;2023-07-22T10:22:56;98951.84;;;26.34;40.05
72798;BME280;61084;55.816;37.036;2023-07-22T10:25:22;98951.47;;;26.37;38.28
72798;BME280;61084;55.816;37.036;2023-07-22T10:27:49;98950.69;;;26.43;39.71
72798;BME280;61084;55.816;37.036;2023-07-22T10:30:17;98946.78;;;26.46;39.45
72798;BME280;61084;55.816;37.036;2023-07-22T10:32:46;98942.81;;;26.42;34.78
72798;BME280;61084;55.816;37.036;2023-07-22T10:35:34;98952.44;;;26.30;38.30
72798;BME280;61084;55.816;37.036;2023-07-22T10:38:16;98952.00;;;26.26;39.06
72798;BME280;61084;55.816;37.036;2023-07-22T10:40:47;98953.66;;;26.27;39.19
72798;BME280;61084;55.816;37.036;2023-07-22T10:43:23;98954.69;;;26.26;38.16
72798;BME280;61084;55.816;37.036;2023-07-22T10:45:51;98954.94;;;26.31;37.73
72798;BME280;61084;55.816;37.036;2023-07-22T10:48:18;98950.34;;;26.25;38.22
72798;BME280;61084;55.816;37.036;2023-07-22T10:50:50;98952.69;;;26.13;38.57
72798;BME280;61084;55.816;37.036;2023-07-22T11:04:05;98953.91;;;26.32;37.36
72798;BME280;61084;55.816;37.036;2023-07-22T11:06:31;98960.13;;;26.33;37.90
72798;BME280;61084;55.816;37.036;2023-07-22T11:08:57;98958.84;;;26.29;37.76
72798;BME280;61084;55.816;37.036;2023-07-22T11:11:37;98945.53;;;26.06;36.75
72798;BME280;61084;55.816;37.036;2023-07-22T11:14:21;98970.88;;;25.97;36.79
72798;BME280;61084;55.816;37.036;2023-07-22T11:16:48;98972.84;;;25.88;38.14
72798;BME280;61084;55.816;37.036;2023-07-22T11:19:18;98983.06;;;25.78;38.55
72798;BME280;61084;55.816;37.036;2023-07-22T11:21:46;98965.56;;;25.68;37.76
72798;BME280;61084;55.816;37.036;2023-07-22T11:24:13;98974.84;;;25.65;38.67
72798;BME280;61084;55.816;37.036;2023-07-22T11:26:40;98977.06;;;25.62;38.67
72798;BME280;61084;55.816;37.036;2023-07-22T11:29:07;98980.97;;;25.59;38.75
72798;BME280;61084;55.816;37.036;2023-07-22T11:31:40;98981.41;;;25.63;38.70
72798;BME280;61084;55.816;37.036;2023-07-22T11:34:15;98984.22;;;25.55;38.75
72798;BME280;61084;55.816;37.036;2023-07-22T11:36:42;98985.88;;;25.70;39.55
72798;BME280;61084;55.816;37.036;2023-07-22T11:39:13;98980.63;;;25.98;39.40
72798;BME280;61084;55.816;37.036;2023-07-22T11:41:40;98981.78;;;26.25;39.27
72798;BME280;61084;55.816;37.036;2023-07-22T11:44:10;98981.59;;;26.47;39.91
72798;BME280;61084;55.816;37.036;2023-07-22T11:47:02;98982.63;;;26.67;38.55
72798;BME280;61084;55.816;37.036;2023-07-22T11:49:41;98981.06;;;26.73;38.58
72798;BME280;61084;55.816;37.036;2023-07-22T11:52:09;98970.34;;;26.79;38.84
72798;BME280;61084;55.816;37.036;2023-07-22T11:54:39;98977.75;;;26.77;38.72
72798;BME280;61084;55.816;37.036;2023-07-22T11:57:14;98971.59;;;26.62;38.16
72798;BME280;61084;55.816;37.036;2023-07-22T11:59:45;98974.03;;;26.36;37.41
72798;BME280;61084;55.816;37.036;2023-07-22T12:02:19;98985.81;;;26.14;38.25
72798;BME280;61084;55.816;37.036;2023-07-22T12:09:52;99003.94;;;24.95;38.82
72798;BME280;61084;55.816;37.036;2023-07-22T12:12:18;98994.09;;;24.65;39.80
72798;BME280;61084;55.816;37.036;2023-07-22T12:14:44;98981.94;;;24.54;40.00
72798;BME280;61084;55.816;37.036;2023-07-22T12:17:10;98988.16;;;24.55;39.88
72798;BME280;61084;55.816;37.036;2023-07-22T12:19:36;98986.84;;;24.51;39.99
72798;BME280;61084;55.816;37.036;2023-07-22T12:22:02;98980.56;;;24.58;40.48
72798;BME280;61084;55.816;37.036;2023-07-22T12:24:28;98974.91;;;24.76;41.21
72798;BME280;61084;55.816;37.036;2023-07-22T12:26:54;98974.03;;;24.98;40.92
72798;BME280;61084;55.816;37.036;2023-07-22T12:29:20;98968.13;;;25.17;41.30
72798;BME280;61084;55.816;37.036;2023-07-22T12:31:48;98966.06;;;25.42;40.48
72798;BME280;61084;55.816;37.036;2023-07-22T12:34:13;98973.91;;;25.58;40.12
72798;BME280;61084;55.816;37.036;2023-07-22T12:36:40;98966.78;;;25.51;39.88
72798;BME280;61084;55.816;37.036;2023-07-22T12:39:06;98968.75;;;25.42;39.37
72798;BME280;61084;55.816;37.036;2023-07-22T12:41:32;98972.84;;;25.30;39.29
72798;BME280;61084;55.816;37.036;2023-07-22T12:43:58;98967.88;;;25.27;39.78
72798;BME280;61084;55.816;37.036;2023-07-22T12:46:24;98968.22;;;25.24;40.16
72798;BME280;61084;55.816;37.036;2023-07-22T12:48:49;98956.84;;;25.07;39.17
72798;BME280;61084;55.816;37.036;2023-07-22T12:51:15;98953.56;;;24.97;39.79
72798;BME280;61084;55.816;37.036;2023-07-22T12:53:41;98953.44;;;24.91;38.86
72798;BME280;61084;55.816;37.036;2023-07-22T12:56:07;98962.91;;;24.87;40.46
72798;BME280;61084;55.816;37.036;2023-07-22T12:58:33;98961.44;;;24.99;40.69
72798;BME280;61084;55.816;37.036;2023-07-22T13:00:59;98957.47;;;25.09;40.33
72798;BME280;61084;55.816;37.036;2023-07-22T13:03:25;98960.63;;;25.27;40.56
72798;BME280;61084;55.816;37.036;2023-07-22T13:05:51;98963.38;;;25.42;40.79
72798;BME280;61084;55.816;37.036;2023-07-22T13:08:17;98956.28;;;25.56;40.56
72798;BME280;61084;55.816;37.036;2023-07-22T13:10:43;98950.91;;;25.70;40.04